createdAt,value
2022-12-23T00:01:25.468Z,99574.28
2022-12-23T00:03:56.948Z,99571.16
2022-12-23T00:06:24.503Z,99574.00
2022-12-23T00:08:58.338Z,99573.91
2022-12-23T00:11:28.977Z,99568.44
2022-12-23T00:14:21.226Z,99571.41
2022-12-23T00:16:50.908Z,99583.03
2022-12-23T00:19:18.654Z,99581.41
2022-12-23T00:21:46.169Z,99580.44
2022-12-23T00:24:14.965Z,99576.69
2022-12-23T00:26:42.448Z,99578.09
2022-12-23T00:29:09.974Z,99573.47
2022-12-23T00:31:37.439Z,99570.91
2022-12-23T00:34:04.973Z,99561.22
2022-12-23T00:36:32.645Z,99562.47
2022-12-23T00:39:19.536Z,99566.88
2022-12-23T00:42:08.371Z,99560.31
2022-12-23T00:44:36.000Z,99566.31
2022-12-23T00:47:03.480Z,99559.22
2022-12-23T00:49:43.005Z,99559.06
2022-12-23T00:52:15.771Z,99565.06
2022-12-23T00:54:43.633Z,99563.09
2022-12-23T00:57:11.460Z,99560.44
2022-12-23T00:59:39.051Z,99560.53
2022-12-23T01:02:25.118Z,99564.69
2022-12-23T01:05:11.062Z,99559.00
2022-12-23T01:07:38.585Z,99551.34
2022-12-23T01:10:06.642Z,99548.97
2022-12-23T01:12:34.151Z,99539.19
2022-12-23T01:15:01.707Z,99546.88
2022-12-23T01:17:29.249Z,99542.56
2022-12-23T01:19:56.757Z,99543.81
2022-12-23T01:22:26.919Z,99543.28
2022-12-23T01:24:54.680Z,99532.28
2022-12-23T01:27:22.286Z,99532.75
2022-12-23T01:29:49.782Z,99529.69
2022-12-23T01:32:17.383Z,99530.19
2022-12-23T01:34:45.105Z,99536.19
2022-12-23T01:37:12.625Z,99531.09
2022-12-23T01:39:40.088Z,99534.06
2022-12-23T01:42:37.256Z,99531.53
2022-12-23T01:45:25.306Z,99534.06
2022-12-23T01:47:55.439Z,99523.81
2022-12-23T01:51:09.302Z,99528.97
2022-12-23T01:53:44.818Z,99519.75
2022-12-23T01:56:42.310Z,99513.25
2022-12-23T01:59:34.381Z,99499.56
2022-12-23T02:02:23.360Z,99504.47
2022-12-23T02:04:52.003Z,99505.41
2022-12-23T02:07:38.462Z,99503.53
2022-12-23T02:10:08.352Z,99500.06
2022-12-23T02:13:07.611Z,99510.06
2022-12-23T02:16:18.838Z,99512.13
2022-12-23T02:19:10.458Z,99514.56
2022-12-23T02:21:37.955Z,99515.06
2022-12-23T02:24:20.618Z,99508.19
2022-12-23T02:27:14.184Z,99504.75
2022-12-23T02:30:27.649Z,99493.25
2022-12-23T02:33:03.388Z,99493.25
2022-12-23T02:35:58.109Z,99491.06
2022-12-23T02:38:40.112Z,99493.44
2022-12-23T02:41:24.322Z,99491.41
2022-12-23T02:44:00.544Z,99493.94
2022-12-23T02:46:47.143Z,99488.19
2022-12-23T02:49:40.412Z,99481.75
2022-12-23T02:52:14.663Z,99477.09
2022-12-23T02:55:06.417Z,99479.84
2022-12-23T02:57:39.232Z,99484.13
2022-12-23T03:00:08.890Z,99485.38
2022-12-23T03:02:40.632Z,99482.34
2022-12-23T03:05:39.317Z,99482.78
2022-12-23T03:08:21.238Z,99474.56
2022-12-23T03:11:16.368Z,99474.94
2022-12-23T03:13:57.678Z,99471.94
2022-12-23T03:16:29.624Z,99476.84
2022-12-23T03:19:00.028Z,99474.22
2022-12-23T03:22:07.387Z,99473.59
2022-12-23T03:25:07.361Z,99476.22
2022-12-23T03:27:41.520Z,99468.91
2022-12-23T03:30:15.425Z,99471.06
2022-12-23T03:33:26.549Z,99473.25
2022-12-23T03:36:02.733Z,99470.97
2022-12-23T03:38:34.522Z,99478.41
2022-12-23T03:41:15.635Z,99479.22
2022-12-23T03:43:57.055Z,99467.31
2022-12-23T03:46:39.396Z,99465.44
2022-12-23T03:49:14.974Z,99471.84
2022-12-23T03:51:59.346Z,99470.81
2022-12-23T03:54:36.484Z,99468.09
2022-12-23T03:57:08.444Z,99470.75
2022-12-23T03:59:41.370Z,99469.16
2022-12-23T04:02:25.187Z,99472.59
2022-12-23T04:05:25.819Z,99484.44
2022-12-23T04:08:18.007Z,99489.75
2022-12-23T04:10:46.520Z,99476.50
2022-12-23T04:13:14.060Z,99479.22
2022-12-23T04:15:42.666Z,99476.91
2022-12-23T04:18:12.321Z,99474.31
2022-12-23T04:20:39.952Z,99474.69
2022-12-23T04:23:07.447Z,99475.75
2022-12-23T04:25:34.937Z,99471.50
2022-12-23T04:28:02.455Z,99466.63
2022-12-23T04:30:34.217Z,99470.78
2022-12-23T04:33:04.060Z,99469.75
2022-12-23T04:35:31.831Z,99468.84
2022-12-23T04:37:59.324Z,99475.97
2022-12-23T04:40:28.221Z,99471.38
2022-12-23T04:42:55.756Z,99472.31
2022-12-23T04:45:23.474Z,99470.63
2022-12-23T04:47:51.239Z,99474.16
2022-12-23T04:50:18.820Z,99463.38
2022-12-23T04:52:46.358Z,99470.41
2022-12-23T04:55:13.880Z,99477.94
2022-12-23T04:57:41.485Z,99485.06
2022-12-23T05:00:10.082Z,99485.31
2022-12-23T05:02:39.742Z,99492.13
2022-12-23T05:05:07.743Z,99485.16
2022-12-23T05:07:35.394Z,99483.44
2022-12-23T05:10:03.206Z,99486.66
2022-12-23T05:12:32.079Z,99488.94
2022-12-23T05:14:59.545Z,99494.38
2022-12-23T05:17:27.090Z,99493.97
2022-12-23T05:19:54.634Z,99498.28
2022-12-23T05:22:22.313Z,99491.09
2022-12-23T05:24:50.392Z,99493.66
2022-12-23T05:27:19.588Z,99497.16
2022-12-23T05:29:47.085Z,99493.66
2022-12-23T05:32:14.605Z,99494.69
2022-12-23T05:34:42.229Z,99503.81
2022-12-23T05:37:10.281Z,99490.69
2022-12-23T05:39:37.849Z,99501.97
2022-12-23T05:42:05.764Z,99506.16
2022-12-23T05:44:33.441Z,99504.81
2022-12-23T05:47:02.212Z,99518.22
2022-12-23T05:49:30.135Z,99519.41
2022-12-23T05:51:57.636Z,99526.53
2022-12-23T05:54:25.426Z,99520.59
2022-12-23T05:56:52.873Z,99514.78
2022-12-23T05:59:21.452Z,99511.31
2022-12-23T06:01:49.078Z,99513.97
2022-12-23T06:04:17.991Z,99515.59
2022-12-23T06:06:45.601Z,99511.94
2022-12-23T06:09:13.211Z,99515.53
2022-12-23T06:11:40.666Z,99517.16
2022-12-23T06:14:08.480Z,99519.25
2022-12-23T06:16:37.121Z,99526.75
2022-12-23T06:19:05.179Z,99524.41
2022-12-23T06:21:32.750Z,99519.13
2022-12-23T06:24:00.385Z,99515.53
2022-12-23T06:26:28.409Z,99524.22
2022-12-23T06:28:55.904Z,99520.63
2022-12-23T06:31:23.693Z,99524.94
2022-12-23T06:33:51.169Z,99527.75
2022-12-23T06:36:18.833Z,99527.84
2022-12-23T06:38:46.314Z,99524.88
2022-12-23T06:41:13.820Z,99527.13
2022-12-23T06:43:41.256Z,99526.31
2022-12-23T06:46:08.792Z,99524.41
2022-12-23T06:48:36.484Z,99524.16
2022-12-23T06:51:04.144Z,99526.69
2022-12-23T06:53:31.642Z,99519.50
2022-12-23T06:56:03.154Z,99520.88
2022-12-23T06:58:30.717Z,99520.16
2022-12-23T07:00:58.480Z,99527.59
2022-12-23T07:03:26.329Z,99523.91
2022-12-23T07:05:54.759Z,99527.28
2022-12-23T07:08:22.439Z,99529.13
2022-12-23T07:10:49.997Z,99532.31
2022-12-23T07:13:17.461Z,99534.94
2022-12-23T07:15:46.306Z,99537.31
2022-12-23T07:18:13.796Z,99541.91
2022-12-23T07:20:41.447Z,99531.00
2022-12-23T07:23:08.905Z,99533.25
2022-12-23T07:25:36.474Z,99528.09
2022-12-23T07:28:04.073Z,99525.50
2022-12-23T07:30:31.554Z,99527.50
2022-12-23T07:32:59.200Z,99527.72
2022-12-23T07:35:26.693Z,99527.34
2022-12-23T07:37:56.063Z,99546.88
2022-12-23T07:40:24.858Z,99544.16
2022-12-23T07:42:58.695Z,99536.59
2022-12-23T07:45:27.968Z,99542.94
2022-12-23T07:47:57.994Z,99549.22
2022-12-23T07:50:26.665Z,99547.19
2022-12-23T07:52:55.924Z,99551.19
2022-12-23T07:55:24.457Z,99559.78
2022-12-23T07:57:53.419Z,99561.63
2022-12-23T08:00:22.257Z,99555.38
2022-12-23T08:02:49.947Z,99554.63
2022-12-23T08:05:18.996Z,99553.56
2022-12-23T08:07:46.747Z,99553.25
2022-12-23T08:10:14.335Z,99563.34
2022-12-23T08:12:42.635Z,99568.72
2022-12-23T08:15:10.472Z,99564.31
2022-12-23T08:17:38.046Z,99552.03
2022-12-23T08:20:06.873Z,99562.97
2022-12-23T08:22:34.497Z,99566.53
2022-12-23T08:25:02.121Z,99561.47
2022-12-23T08:27:29.891Z,99559.28
2022-12-23T08:29:57.508Z,99566.34
2022-12-23T08:32:28.117Z,99560.81
2022-12-23T08:34:58.457Z,99565.38
2022-12-23T08:37:29.131Z,99562.44
2022-12-23T08:39:57.256Z,99569.13
2022-12-23T08:44:55.895Z,99572.38
2022-12-23T08:47:23.462Z,99570.34
2022-12-23T08:49:51.079Z,99557.09
2022-12-23T08:52:18.633Z,99555.03
2022-12-23T08:54:46.148Z,99548.69
2022-12-23T08:57:13.713Z,99562.38
2022-12-23T08:59:41.201Z,99556.03
2022-12-23T09:02:12.462Z,99552.53
2022-12-23T09:04:40.162Z,99552.50
2022-12-23T09:07:07.619Z,99543.19
2022-12-23T09:09:36.464Z,99541.78
2022-12-23T09:12:04.576Z,99540.03
2022-12-23T09:14:32.200Z,99543.25
2022-12-23T09:16:59.817Z,99542.06
2022-12-23T09:19:27.728Z,99539.56
2022-12-23T09:21:55.433Z,99534.97
2022-12-23T09:24:25.690Z,99536.88
2022-12-23T09:26:53.307Z,99536.41
2022-12-23T09:29:21.052Z,99519.16
2022-12-23T09:31:48.637Z,99519.94
2022-12-23T09:34:16.176Z,99512.75
2022-12-23T09:36:43.955Z,99520.00
2022-12-23T09:39:11.573Z,99518.22
2022-12-23T09:42:01.896Z,99520.16
2022-12-23T09:44:46.556Z,99510.63
2022-12-23T09:47:22.670Z,99510.78
2022-12-23T09:50:07.268Z,99523.25
2022-12-23T09:53:04.764Z,99520.50
2022-12-23T09:56:15.643Z,99513.25
2022-12-23T09:59:39.016Z,99511.94
2022-12-23T10:02:25.310Z,99497.25
2022-12-23T10:05:35.533Z,99492.69
2022-12-23T10:08:13.305Z,99492.31
2022-12-23T10:10:50.131Z,99490.31
2022-12-23T10:13:29.849Z,99481.63
2022-12-23T10:16:04.622Z,99490.63
2022-12-23T10:18:55.845Z,99478.63
2022-12-23T10:21:47.987Z,99477.59
2022-12-23T10:24:40.045Z,99481.84
2022-12-23T10:27:37.699Z,99476.88
2022-12-23T10:30:34.123Z,99482.34
2022-12-23T10:33:12.270Z,99478.34
2022-12-23T10:35:48.501Z,99472.00
2022-12-23T10:38:49.439Z,99470.09
2022-12-23T10:41:41.879Z,99471.63
2022-12-23T10:44:40.231Z,99463.66
2022-12-23T10:47:42.225Z,99465.09
2022-12-23T10:50:50.999Z,99466.72
2022-12-23T10:53:31.244Z,99463.09
2022-12-23T10:55:59.560Z,99462.41
2022-12-23T10:58:27.612Z,99470.47
2022-12-23T11:01:09.917Z,99464.88
2022-12-23T11:04:16.142Z,99454.94
2022-12-23T11:06:52.853Z,99452.88
2022-12-23T11:09:40.631Z,99457.47
2022-12-23T11:12:13.127Z,99458.38
2022-12-23T11:14:50.915Z,99456.84
2022-12-23T11:17:23.213Z,99448.06
2022-12-23T11:20:18.670Z,99442.34
2022-12-23T11:23:02.474Z,99442.34
2022-12-23T11:25:41.880Z,99447.84
2022-12-23T11:28:18.370Z,99446.50
2022-12-23T11:31:12.297Z,99438.84
2022-12-23T11:34:02.843Z,99432.16
2022-12-23T11:36:32.366Z,99430.19
2022-12-23T11:39:05.618Z,99431.41
2022-12-23T11:41:44.590Z,99425.53
2022-12-23T11:44:49.481Z,99435.44
2022-12-23T11:47:22.755Z,99417.78
2022-12-23T11:49:54.686Z,99421.63
2022-12-23T11:52:27.652Z,99408.69
2022-12-23T11:55:01.822Z,99405.31
2022-12-23T11:57:45.100Z,99399.41
2022-12-23T12:00:23.150Z,99401.19
2022-12-23T12:02:57.211Z,99411.69
2022-12-23T12:05:48.186Z,99412.84
2022-12-23T12:08:25.396Z,99406.19
2022-12-23T12:10:56.600Z,99397.50
2022-12-23T12:14:06.557Z,99394.78
2022-12-23T12:17:05.269Z,99401.34
2022-12-23T12:20:00.152Z,99401.09
2022-12-23T12:22:36.962Z,99408.28
2022-12-23T12:25:24.509Z,99412.59
2022-12-23T12:28:01.624Z,99414.78
2022-12-23T12:30:46.837Z,99413.69
2022-12-23T12:33:35.072Z,99408.59
2022-12-23T12:36:36.586Z,99405.16
2022-12-23T12:39:04.877Z,99406.97
2022-12-23T12:41:41.000Z,99407.94
2022-12-23T12:44:33.020Z,99411.66
2022-12-23T12:47:54.191Z,99413.69
2022-12-23T12:50:29.791Z,99409.72
2022-12-23T12:53:06.274Z,99399.38
2022-12-23T12:55:42.755Z,99399.53
2022-12-23T12:58:21.917Z,99392.53
2022-12-23T13:01:24.443Z,99398.72
2022-12-23T13:04:18.114Z,99411.13
2022-12-23T13:07:00.503Z,99408.47
2022-12-23T13:09:52.910Z,99403.88
2022-12-23T13:12:43.245Z,99409.53
2022-12-23T13:15:37.258Z,99406.59
2022-12-23T13:18:40.209Z,99396.22
2022-12-23T13:21:30.645Z,99397.56
2022-12-23T13:24:32.897Z,99403.75
2022-12-23T13:27:34.052Z,99400.25
2022-12-23T13:30:18.037Z,99403.22
2022-12-23T13:33:19.531Z,99412.72
2022-12-23T13:39:11.591Z,99411.91
2022-12-23T13:41:53.198Z,99407.22
2022-12-23T13:44:22.889Z,99412.16
2022-12-23T13:47:14.374Z,99402.78
2022-12-23T13:50:31.436Z,99400.38
2022-12-23T13:53:25.096Z,99399.88
2022-12-23T13:56:16.265Z,99411.97
2022-12-23T13:58:49.404Z,99409.00
2022-12-23T14:01:17.822Z,99406.03
2022-12-23T14:03:48.855Z,99401.94
2022-12-23T14:06:25.109Z,99403.47
2022-12-23T14:08:54.503Z,99409.28
2022-12-23T14:11:32.175Z,99408.31
2022-12-23T14:14:06.295Z,99412.22
2022-12-23T14:16:42.947Z,99401.16
2022-12-23T14:19:38.196Z,99395.47
2022-12-23T14:22:23.530Z,99396.53
2022-12-23T14:25:13.877Z,99401.28
2022-12-23T14:27:52.662Z,99406.19
2022-12-23T14:30:45.032Z,99401.94
2022-12-23T14:33:36.045Z,99390.63
2022-12-23T14:36:27.482Z,99402.13
2022-12-23T14:39:14.113Z,99411.22
2022-12-23T14:42:05.151Z,99401.81
2022-12-23T14:44:39.169Z,99409.47
2022-12-23T14:47:40.380Z,99413.16
2022-12-23T14:50:59.091Z,99410.81
2022-12-23T14:53:34.148Z,99403.41
2022-12-23T14:56:19.306Z,99403.75
2022-12-23T14:59:09.495Z,99399.59
2022-12-23T15:01:50.406Z,99411.31
2022-12-23T15:04:35.581Z,99422.47
2022-12-23T15:07:17.264Z,99430.16
2022-12-23T15:10:01.254Z,99421.97
2022-12-23T15:12:41.579Z,99426.00
2022-12-23T15:15:21.842Z,99435.22
2022-12-23T15:18:00.955Z,99426.16
2022-12-23T15:20:30.021Z,99430.53
2022-12-23T15:23:08.126Z,99427.78
2022-12-23T15:25:42.716Z,99424.47
2022-12-23T15:28:40.396Z,99423.22
2022-12-23T15:31:29.975Z,99429.69
2022-12-23T15:34:03.956Z,99424.75
2022-12-23T15:36:40.540Z,99427.88
2022-12-23T15:39:21.111Z,99444.44
2022-12-23T15:41:49.756Z,99451.22
2022-12-23T15:44:24.639Z,99445.75
2022-12-23T15:46:53.057Z,99446.25
2022-12-23T15:49:22.490Z,99456.66
2022-12-23T15:52:07.881Z,99458.91
2022-12-23T15:55:12.932Z,99450.88
2022-12-23T15:57:50.336Z,99452.50
2022-12-23T16:00:31.193Z,99457.59
2022-12-23T16:03:04.577Z,99451.47
2022-12-23T16:06:06.134Z,99450.47
2022-12-23T16:08:34.080Z,99446.88
2022-12-23T16:11:20.764Z,99451.03
2022-12-23T16:14:28.737Z,99446.94
2022-12-23T16:17:01.971Z,99453.97
2022-12-23T16:19:49.152Z,99459.19
2022-12-23T16:22:39.778Z,99450.56
2022-12-23T16:25:27.188Z,99453.56
2022-12-23T16:28:13.079Z,99455.22
2022-12-23T16:30:44.350Z,99450.63
2022-12-23T16:34:08.121Z,99445.81
2022-12-23T16:36:37.665Z,99449.81
2022-12-23T16:39:21.869Z,99439.75
2022-12-23T16:41:50.979Z,99460.47
2022-12-23T16:44:18.556Z,99461.69
2022-12-23T16:46:50.110Z,99464.50
2022-12-23T16:49:27.944Z,99471.81
2022-12-23T16:51:59.133Z,99468.72
2022-12-23T16:54:27.968Z,99469.47
2022-12-23T16:56:56.665Z,99485.06
2022-12-23T16:59:25.996Z,99478.81
2022-12-23T17:01:58.126Z,99481.66
2022-12-23T17:04:30.644Z,99482.19
2022-12-23T17:06:59.250Z,99475.03
2022-12-23T17:09:26.878Z,99485.50
2022-12-23T17:11:56.383Z,99490.06
2022-12-23T17:14:46.139Z,99492.91
2022-12-23T17:17:16.058Z,99489.00
2022-12-23T17:19:43.855Z,99482.38
2022-12-23T17:22:13.987Z,99491.25
2022-12-23T17:24:44.088Z,99486.69
2022-12-23T17:27:20.853Z,99483.63
2022-12-23T17:29:48.472Z,99486.03
2022-12-23T17:32:19.440Z,99476.91
2022-12-23T17:34:47.825Z,99473.06
2022-12-23T17:37:23.563Z,99469.91
2022-12-23T17:39:54.341Z,99479.31
2022-12-23T17:42:26.018Z,99471.34
2022-12-23T17:44:54.515Z,99468.53
2022-12-23T17:47:23.235Z,99471.13
2022-12-23T17:49:52.109Z,99470.38
2022-12-23T17:52:25.363Z,99464.69
2022-12-23T17:54:54.647Z,99465.47
2022-12-23T17:57:26.983Z,99463.53
2022-12-23T17:59:56.946Z,99464.56
2022-12-23T18:02:32.963Z,99459.44
2022-12-23T18:05:29.495Z,99462.06
2022-12-23T18:08:00.010Z,99465.81
2022-12-23T18:10:37.395Z,99470.00
2022-12-23T18:13:15.632Z,99466.44
2022-12-23T18:15:46.880Z,99468.25
2022-12-23T18:18:16.772Z,99470.84
2022-12-23T18:20:53.296Z,99476.34
2022-12-23T18:23:28.717Z,99463.28
2022-12-23T18:25:58.245Z,99474.34
2022-12-23T18:28:25.995Z,99480.06
2022-12-23T18:30:56.764Z,99479.09
2022-12-23T18:33:28.798Z,99486.88
2022-12-23T18:35:56.985Z,99478.47
2022-12-23T18:38:28.126Z,99489.94
2022-12-23T18:40:56.775Z,99491.78
2022-12-23T18:43:26.661Z,99486.34
2022-12-23T18:45:58.816Z,99490.53
2022-12-23T18:48:28.268Z,99500.13
2022-12-23T18:50:57.305Z,99499.06
2022-12-23T18:53:32.844Z,99496.25
2022-12-23T18:56:00.455Z,99486.88
2022-12-23T18:58:30.737Z,99483.28
2022-12-23T19:01:00.542Z,99482.75
2022-12-23T19:03:33.758Z,99484.84
2022-12-23T19:06:06.825Z,99487.69
2022-12-23T19:08:37.095Z,99487.72
2022-12-23T19:11:21.016Z,99491.06
2022-12-23T19:13:48.875Z,99488.97
2022-12-23T19:16:20.493Z,99486.13
2022-12-23T19:18:52.235Z,99484.56
2022-12-23T19:21:22.938Z,99490.56
2022-12-23T19:23:53.676Z,99490.81
2022-12-23T19:26:24.489Z,99490.81
2022-12-23T19:28:53.281Z,99485.91
2022-12-23T19:31:21.013Z,99485.91
2022-12-23T19:33:49.189Z,99490.06
2022-12-23T19:36:25.003Z,99493.94
2022-12-23T19:38:53.862Z,99495.75
2022-12-23T19:41:21.412Z,99502.75
2022-12-23T19:43:49.244Z,99503.81
2022-12-23T19:46:18.700Z,99498.09
2022-12-23T19:48:52.983Z,99503.03
2022-12-23T19:51:24.411Z,99505.34
2022-12-23T19:53:55.188Z,99499.38
2022-12-23T19:56:26.228Z,99490.81
2022-12-23T19:58:54.220Z,99481.25
2022-12-23T20:01:26.807Z,99478.66
2022-12-23T20:03:57.321Z,99478.91
2022-12-23T20:06:33.277Z,99481.50
2022-12-23T20:09:06.549Z,99485.38
2022-12-23T20:11:40.981Z,99486.91
2022-12-23T20:14:10.043Z,99490.03
2022-12-23T20:16:41.931Z,99491.34
2022-12-23T20:19:11.737Z,99490.06
2022-12-23T20:21:39.537Z,99490.28
2022-12-23T20:24:08.113Z,99478.09
2022-12-23T20:26:35.903Z,99479.16
2022-12-23T20:29:23.630Z,99485.34
2022-12-23T20:31:51.348Z,99487.94
2022-12-23T20:34:19.095Z,99484.03
2022-12-23T20:36:49.148Z,99483.03
2022-12-23T20:39:20.663Z,99487.94
2022-12-23T20:41:51.147Z,99489.50
2022-12-23T20:44:37.992Z,99495.22
2022-12-23T20:47:10.602Z,99491.06
2022-12-23T20:49:38.465Z,99485.88
2022-12-23T20:52:07.413Z,99492.63
2022-12-23T20:54:36.411Z,99495.69
2022-12-23T20:57:04.516Z,99502.44
2022-12-23T20:59:33.404Z,99499.06
2022-12-23T21:02:01.617Z,99497.00
2022-12-23T21:04:29.383Z,99501.91
2022-12-23T21:06:57.509Z,99496.47
2022-12-23T21:09:25.160Z,99494.13
2022-12-23T21:11:53.931Z,99495.16
2022-12-23T21:14:21.975Z,99495.91
2022-12-23T21:16:49.779Z,99495.91
2022-12-23T21:19:21.297Z,99495.16
2022-12-23T21:21:52.967Z,99497.47
2022-12-23T21:24:21.394Z,99493.34
2022-12-23T21:26:56.469Z,99486.84
2022-12-23T21:29:26.511Z,99494.91
2022-12-23T21:31:55.893Z,99503.91
2022-12-23T21:34:23.612Z,99490.09
2022-12-23T21:36:53.873Z,99486.72
2022-12-23T21:39:21.445Z,99488.28
2022-12-23T21:41:51.460Z,99486.72
2022-12-23T21:44:19.347Z,99490.63
2022-12-23T21:46:47.063Z,99487.28
2022-12-23T21:49:14.990Z,99485.47
2022-12-23T21:51:42.464Z,99488.56
2022-12-23T21:54:11.851Z,99482.53
2022-12-23T21:56:40.951Z,99480.53
2022-12-23T21:59:14.508Z,99477.91
2022-12-23T22:01:43.545Z,99476.13
2022-12-23T22:04:11.683Z,99473.53
2022-12-23T22:06:46.007Z,99474.28
2022-12-23T22:09:19.827Z,99476.34
2022-12-23T22:11:48.797Z,99470.59
2022-12-23T22:14:20.817Z,99471.94
2022-12-23T22:16:49.406Z,99476.31
2022-12-23T22:19:17.172Z,99476.59
2022-12-23T22:21:44.714Z,99480.00
2022-12-23T22:24:12.996Z,99477.59
2022-12-23T22:26:41.458Z,99476.84
2022-12-23T22:29:10.459Z,99478.47
2022-12-23T22:31:53.162Z,99476.88
2022-12-23T22:34:22.967Z,99475.78
2022-12-23T22:36:50.716Z,99473.19
2022-12-23T22:39:22.037Z,99473.69
2022-12-23T22:41:52.059Z,99478.88
2022-12-23T22:44:21.932Z,99478.88
2022-12-23T22:46:50.208Z,99474.28
2022-12-23T22:49:18.210Z,99479.94
2022-12-23T22:51:46.028Z,99476.56
2022-12-23T22:54:14.258Z,99490.06
2022-12-23T22:56:42.028Z,99481.13
2022-12-23T22:59:21.123Z,99474.59
2022-12-23T23:01:50.302Z,99470.72
2022-12-23T23:04:19.153Z,99473.81
2022-12-23T23:06:46.715Z,99470.00
2022-12-23T23:09:18.858Z,99475.16
2022-12-23T23:11:46.781Z,99467.38
2022-12-23T23:14:14.449Z,99461.72
2022-12-23T23:16:42.321Z,99462.00
2022-12-23T23:19:12.298Z,99462.19
2022-12-23T23:21:40.450Z,99470.75
2022-12-23T23:24:08.600Z,99469.97
2022-12-23T23:26:36.269Z,99477.22
2022-12-23T23:29:03.865Z,99476.97
2022-12-23T23:31:41.885Z,99466.31
2022-12-23T23:34:14.003Z,99458.28
2022-12-23T23:36:41.734Z,99466.31
2022-12-23T23:39:12.027Z,99469.06
2022-12-23T23:41:41.018Z,99468.97
2022-12-23T23:44:08.893Z,99477.50
2022-12-23T23:46:36.546Z,99467.53
2022-12-23T23:49:07.226Z,99469.09
2022-12-23T23:51:35.115Z,99461.06
2022-12-23T23:54:02.641Z,99467.75
2022-12-23T23:56:37.488Z,99465.22
2022-12-23T23:59:05.622Z,99470.41
